createdAt,value
2019-06-09T00:01:48.492Z,99.90
2019-06-09T00:04:13.631Z,99.90
2019-06-09T00:06:40.630Z,99.90
2019-06-09T00:09:09.340Z,99.90
2019-06-09T00:11:34.138Z,99.90
2019-06-09T00:14:01.873Z,99.90
2019-06-09T00:16:27.668Z,99.90
2019-06-09T00:18:57.375Z,99.90
2019-06-09T00:21:21.924Z,99.90
2019-06-09T00:23:48.647Z,99.90
2019-06-09T00:26:17.619Z,99.90
2019-06-09T00:28:42.204Z,99.90
2019-06-09T00:31:42.735Z,99.90
2019-06-09T00:33:52.433Z,99.90
2019-06-09T00:36:19.202Z,99.90
2019-06-09T00:38:48.125Z,99.90
2019-06-09T00:41:13.902Z,99.90
2019-06-09T00:43:39.963Z,99.90
2019-06-09T00:46:10.285Z,99.90
2019-06-09T00:48:33.544Z,99.90
2019-06-09T00:51:01.390Z,99.90
2019-06-09T00:53:28.841Z,99.90
2019-06-09T00:55:57.125Z,99.90
2019-06-09T00:58:23.865Z,99.90
2019-06-09T01:00:51.364Z,99.90
2019-06-09T01:03:18.800Z,99.90
2019-06-09T01:05:48.171Z,99.90
2019-06-09T01:08:14.740Z,99.90
2019-06-09T01:10:41.268Z,99.90
2019-06-09T01:13:09.556Z,99.90
2019-06-09T01:15:34.160Z,99.90
2019-06-09T01:18:00.902Z,99.90
2019-06-09T01:20:27.974Z,99.90
2019-06-09T01:22:54.407Z,99.90
2019-06-09T01:25:21.104Z,99.90
2019-06-09T01:27:48.281Z,99.90
2019-06-09T01:30:18.906Z,99.90
2019-06-09T01:32:41.426Z,99.90
2019-06-09T01:35:08.512Z,99.90
2019-06-09T01:37:37.586Z,99.90
2019-06-09T01:40:01.791Z,99.90
2019-06-09T01:42:28.570Z,99.90
2019-06-09T01:44:57.873Z,99.90
2019-06-09T01:47:22.629Z,99.90
2019-06-09T01:49:50.189Z,99.90
2019-06-09T01:52:20.036Z,99.90
2019-06-09T01:54:43.735Z,99.90
2019-06-09T01:57:11.541Z,99.90
2019-06-09T01:59:37.503Z,99.90
2019-06-09T02:02:04.890Z,99.90
2019-06-09T02:04:31.685Z,99.90
2019-06-09T02:06:59.148Z,99.90
2019-06-09T02:09:27.927Z,99.90
2019-06-09T02:11:52.670Z,99.90
2019-06-09T02:14:21.009Z,99.90
2019-06-09T02:16:48.353Z,99.90
2019-06-09T02:19:13.223Z,99.90
2019-06-09T02:21:40.554Z,99.90
2019-06-09T02:24:08.267Z,99.90
2019-06-09T02:26:34.029Z,99.90
2019-06-09T02:29:00.843Z,99.90
2019-06-09T02:31:37.125Z,99.90
2019-06-09T02:33:55.330Z,99.90
2019-06-09T02:36:31.110Z,99.90
2019-06-09T02:38:48.615Z,99.90
2019-06-09T02:41:16.808Z,99.90
2019-06-09T02:43:42.192Z,99.90
2019-06-09T02:49:25.732Z,99.90
2019-06-09T02:51:46.810Z,99.90
2019-06-09T02:54:13.589Z,99.90
2019-06-09T02:56:44.296Z,99.90
2019-06-09T02:59:08.049Z,99.90
2019-06-09T03:01:45.014Z,99.90
2019-06-09T03:04:10.782Z,99.90
2019-06-09T03:06:35.954Z,99.90
2019-06-09T03:08:55.285Z,99.90
2019-06-09T03:11:25.883Z,99.90
2019-06-09T03:13:52.104Z,99.90
2019-06-09T03:16:15.750Z,99.90
2019-06-09T03:18:50.966Z,99.90
2019-06-09T03:21:27.253Z,99.90
2019-06-09T03:23:52.403Z,99.90
2019-06-09T03:26:18.847Z,99.90
2019-06-09T03:28:45.225Z,99.90
2019-06-09T03:31:28.784Z,99.90
2019-06-09T03:34:48.861Z,99.90
2019-06-09T03:38:49.136Z,99.90
2019-06-09T03:41:03.224Z,99.90
2019-06-09T03:43:37.033Z,99.90
2019-06-09T03:45:56.906Z,99.90
2019-06-09T03:48:27.675Z,99.90
2019-06-09T03:50:56.251Z,99.90
2019-06-09T03:53:18.110Z,99.90
2019-06-09T03:55:48.293Z,99.90
2019-06-09T03:58:12.451Z,99.90
2019-06-09T04:00:44.586Z,99.90
2019-06-09T04:03:06.343Z,99.90
2019-06-09T04:05:58.516Z,99.90
2019-06-09T04:08:02.333Z,99.90
2019-06-09T04:10:30.737Z,99.90
2019-06-09T04:12:54.539Z,99.90
2019-06-09T04:15:22.248Z,99.90
2019-06-09T04:17:48.130Z,99.90
2019-06-09T04:20:15.069Z,99.90
2019-06-09T04:22:48.667Z,99.90
2019-06-09T04:25:11.426Z,99.90
2019-06-09T04:27:44.466Z,99.90
2019-06-09T04:30:08.107Z,99.90
2019-06-09T04:32:34.356Z,99.90
2019-06-09T04:34:56.602Z,99.90
2019-06-09T04:37:24.607Z,99.90
2019-06-09T04:39:52.858Z,99.90
2019-06-09T04:42:16.898Z,99.90
2019-06-09T04:44:45.548Z,99.70
2019-06-09T04:47:11.819Z,97.00
2019-06-09T04:49:41.792Z,96.00
2019-06-09T04:52:04.731Z,92.70
2019-06-09T04:54:37.812Z,92.60
2019-06-09T04:57:01.809Z,90.80
2019-06-09T04:59:26.636Z,89.00
2019-06-09T05:01:53.474Z,82.90
2019-06-09T05:04:22.914Z,85.40
2019-06-09T05:07:05.688Z,85.40
2019-06-09T05:09:14.706Z,82.30
2019-06-09T05:11:47.879Z,77.30
2019-06-09T05:14:08.122Z,77.70
2019-06-09T05:16:40.590Z,75.90
2019-06-09T05:19:03.140Z,75.80
2019-06-09T05:21:30.757Z,73.90
2019-06-09T05:23:56.701Z,74.30
2019-06-09T05:26:23.382Z,73.10
2019-06-09T05:28:52.670Z,73.50
2019-06-09T05:31:17.641Z,71.30
2019-06-09T05:33:47.204Z,74.00
2019-06-09T05:36:11.953Z,73.90
2019-06-09T05:38:48.056Z,73.30
2019-06-09T05:41:06.170Z,73.30
2019-06-09T05:43:34.800Z,74.00
2019-06-09T05:46:01.449Z,75.00
2019-06-09T05:48:26.497Z,73.20
2019-06-09T05:50:53.329Z,74.50
2019-06-09T05:53:22.042Z,72.60
2019-06-09T05:55:46.784Z,72.80
2019-06-09T05:58:14.256Z,67.60
2019-06-09T06:00:43.797Z,66.60
2019-06-09T06:03:07.761Z,67.30
2019-06-09T06:05:35.366Z,65.90
2019-06-09T06:08:01.783Z,65.40
2019-06-09T06:10:28.186Z,65.00
2019-06-09T06:12:55.601Z,68.40
2019-06-09T06:15:22.368Z,68.50
2019-06-09T06:17:50.986Z,69.80
2019-06-09T06:20:16.717Z,69.80
2019-06-09T06:22:44.023Z,70.20
2019-06-09T06:25:13.781Z,64.70
2019-06-09T06:27:37.733Z,64.60
2019-06-09T06:30:06.293Z,66.70
2019-06-09T06:32:34.184Z,65.20
2019-06-09T06:35:01.487Z,65.20
2019-06-09T06:37:35.978Z,68.20
2019-06-09T06:39:54.205Z,66.10
2019-06-09T06:42:21.232Z,64.80
2019-06-09T06:44:47.758Z,62.90
2019-06-09T06:47:16.382Z,62.80
2019-06-09T06:49:44.206Z,65.70
2019-06-09T06:52:12.369Z,65.40
2019-06-09T06:54:37.177Z,65.30
2019-06-09T06:57:04.600Z,66.00
2019-06-09T06:59:31.750Z,65.70
2019-06-09T07:01:58.079Z,66.30
2019-06-09T07:04:24.870Z,62.90
2019-06-09T07:06:53.066Z,64.30
2019-06-09T07:09:21.592Z,64.30
2019-06-09T07:11:49.188Z,60.50
2019-06-09T07:14:14.796Z,60.50
2019-06-09T07:16:43.642Z,62.90
2019-06-09T07:19:11.204Z,63.20
2019-06-09T07:21:36.041Z,63.20
2019-06-09T07:24:03.513Z,67.60
2019-06-09T07:26:31.735Z,65.30
2019-06-09T07:28:57.803Z,65.30
2019-06-09T07:31:24.529Z,64.80
2019-06-09T07:34:06.957Z,62.70
2019-06-09T07:36:33.911Z,62.50
2019-06-09T07:39:01.901Z,64.50
2019-06-09T07:41:32.081Z,64.40
2019-06-09T07:44:01.689Z,62.00
2019-06-09T07:46:28.301Z,62.70
2019-06-09T07:48:56.117Z,65.40
2019-06-09T07:51:23.419Z,66.20
2019-06-09T07:53:53.313Z,62.10
2019-06-09T07:56:17.672Z,60.80
2019-06-09T07:58:46.287Z,63.80
2019-06-09T08:01:12.150Z,63.60
2019-06-09T08:03:41.432Z,61.30
2019-06-09T08:06:06.683Z,61.30
2019-06-09T08:08:40.747Z,63.10
2019-06-09T08:11:01.061Z,60.10
2019-06-09T08:13:28.235Z,59.60
2019-06-09T08:15:55.291Z,61.50
2019-06-09T08:18:21.889Z,64.00
2019-06-09T08:20:51.241Z,65.80
2019-06-09T08:23:16.313Z,65.70
2019-06-09T08:25:43.067Z,65.70
2019-06-09T08:28:11.114Z,65.10
2019-06-09T08:30:40.721Z,68.50
2019-06-09T08:33:07.969Z,69.30
2019-06-09T08:35:34.839Z,67.90
2019-06-09T08:38:01.693Z,67.40
2019-06-09T08:40:30.738Z,67.80
2019-06-09T08:42:56.085Z,67.80
2019-06-09T08:45:41.836Z,70.50
2019-06-09T08:48:06.601Z,73.00
2019-06-09T08:50:33.511Z,73.40
2019-06-09T08:53:03.329Z,74.20
2019-06-09T08:55:27.514Z,73.80
2019-06-09T08:58:02.968Z,77.20
2019-06-09T09:00:31.747Z,77.20
2019-06-09T09:03:00.442Z,76.70
2019-06-09T09:05:25.263Z,76.30
2019-06-09T09:07:54.104Z,75.90
2019-06-09T09:10:20.528Z,76.70
2019-06-09T09:12:46.721Z,76.50
2019-06-09T09:15:14.146Z,75.40
2019-06-09T09:17:41.347Z,73.10
2019-06-09T09:20:11.466Z,74.60
2019-06-09T09:22:37.306Z,76.30
2019-06-09T09:25:17.099Z,76.30
2019-06-09T09:27:31.493Z,75.10
2019-06-09T09:30:01.580Z,72.80
2019-06-09T09:32:27.688Z,75.70
2019-06-09T09:34:57.160Z,74.20
2019-06-09T09:37:24.371Z,74.00
2019-06-09T09:39:54.476Z,75.00
2019-06-09T09:42:23.412Z,75.90
2019-06-09T09:44:47.542Z,76.80
2019-06-09T09:47:13.280Z,79.00
2019-06-09T09:49:40.928Z,81.80
2019-06-09T09:52:07.509Z,81.90
2019-06-09T09:54:34.551Z,82.60
2019-06-09T09:57:01.889Z,84.70
2019-06-09T09:59:31.536Z,83.30
2019-06-09T10:01:58.303Z,83.20
2019-06-09T10:04:24.209Z,83.50
2019-06-09T10:06:53.020Z,82.60
2019-06-09T10:09:20.559Z,84.20
2019-06-09T10:11:46.924Z,85.60
2019-06-09T10:14:14.918Z,86.40
2019-06-09T10:16:40.859Z,82.90
2019-06-09T10:19:07.637Z,83.30
2019-06-09T10:21:34.418Z,83.30
2019-06-09T10:24:02.065Z,83.10
2019-06-09T10:26:28.803Z,83.30
2019-06-09T10:28:56.926Z,82.70
2019-06-09T10:31:23.061Z,82.80
2019-06-09T10:33:50.519Z,83.00
2019-06-09T10:36:17.230Z,83.00
2019-06-09T10:38:44.812Z,82.40
2019-06-09T10:41:11.701Z,82.30
2019-06-09T10:43:41.436Z,81.90
2019-06-09T10:46:06.651Z,83.80
2019-06-09T10:48:33.380Z,83.80
2019-06-09T10:51:04.298Z,81.80
2019-06-09T10:53:26.989Z,83.50
2019-06-09T10:55:56.846Z,84.40
2019-06-09T10:58:22.276Z,83.70
2019-06-09T11:00:47.388Z,85.80
2019-06-09T11:03:14.861Z,87.00
2019-06-09T11:05:41.875Z,87.10
2019-06-09T11:08:08.501Z,87.10
2019-06-09T11:10:35.691Z,86.90
2019-06-09T11:13:04.262Z,86.00
2019-06-09T11:15:28.844Z,85.50
2019-06-09T11:17:57.130Z,84.40
2019-06-09T11:20:23.092Z,84.50
2019-06-09T11:22:51.077Z,84.30
2019-06-09T11:25:18.164Z,85.00
2019-06-09T11:27:43.518Z,85.90
2019-06-09T11:30:16.932Z,85.10
2019-06-09T11:32:37.049Z,83.40
2019-06-09T11:35:04.667Z,85.40
2019-06-09T11:37:30.895Z,85.50
2019-06-09T11:39:58.879Z,88.30
2019-06-09T11:42:26.060Z,88.30
2019-06-09T11:44:53.308Z,90.90
2019-06-09T11:47:21.750Z,92.10
2019-06-09T11:49:46.849Z,91.70
2019-06-09T11:52:13.976Z,91.00
2019-06-09T11:54:41.904Z,96.20
2019-06-09T11:57:11.538Z,96.20
2019-06-09T11:59:37.755Z,99.90
2019-06-09T12:02:06.923Z,99.90
2019-06-09T12:04:32.027Z,99.90
2019-06-09T12:07:03.300Z,99.90
2019-06-09T12:09:27.561Z,99.90
2019-06-09T12:11:55.781Z,99.90
2019-06-09T12:14:22.956Z,99.90
2019-06-09T12:16:51.772Z,99.90
2019-06-09T12:19:16.766Z,99.90
2019-06-09T12:21:43.877Z,99.90
2019-06-09T12:24:12.104Z,99.90
2019-06-09T12:26:38.108Z,99.90
2019-06-09T12:29:07.841Z,99.90
2019-06-09T12:31:32.762Z,99.90
2019-06-09T12:34:02.400Z,99.90
2019-06-09T12:36:42.164Z,99.90
2019-06-09T12:39:10.733Z,99.90
2019-06-09T12:41:36.628Z,99.90
2019-06-09T12:44:04.789Z,99.90
2019-06-09T12:46:32.094Z,99.90
2019-06-09T12:49:01.985Z,99.90
2019-06-09T12:51:26.681Z,99.90
2019-06-09T12:53:53.858Z,99.90
2019-06-09T12:56:20.993Z,99.90
2019-06-09T12:58:48.152Z,99.90
2019-06-09T13:01:15.735Z,99.90
2019-06-09T13:03:42.168Z,99.90
2019-06-09T13:06:11.295Z,99.90
2019-06-09T13:08:37.469Z,99.90
2019-06-09T13:11:11.006Z,99.90
2019-06-09T13:13:32.785Z,99.90
2019-06-09T13:16:05.420Z,99.90
2019-06-09T13:18:26.544Z,99.90
2019-06-09T13:20:53.868Z,99.90
2019-06-09T13:23:21.752Z,99.90
2019-06-09T13:25:51.177Z,99.90
2019-06-09T13:28:15.735Z,99.90
2019-06-09T13:30:44.492Z,99.90
2019-06-09T13:33:12.418Z,99.90
2019-06-09T13:35:41.559Z,99.90
2019-06-09T13:38:06.431Z,99.90
2019-06-09T13:40:34.239Z,99.90
2019-06-09T13:43:02.501Z,99.90
2019-06-09T13:45:31.835Z,99.90
2019-06-09T13:47:57.425Z,99.90
2019-06-09T13:50:24.464Z,99.90
2019-06-09T13:52:51.609Z,99.90
2019-06-09T13:55:20.715Z,99.90
2019-06-09T13:57:45.669Z,99.90
2019-06-09T14:00:14.779Z,99.90
2019-06-09T14:02:41.199Z,99.90
2019-06-09T14:05:06.674Z,99.90
2019-06-09T14:07:33.849Z,99.90
2019-06-09T14:10:01.207Z,99.90
2019-06-09T14:12:32.806Z,99.90
2019-06-09T14:14:57.169Z,99.90
2019-06-09T14:17:24.355Z,99.90
2019-06-09T14:19:51.482Z,99.90
2019-06-09T14:22:21.431Z,99.90
2019-06-09T14:24:47.240Z,99.90
2019-06-09T14:27:16.955Z,99.90
2019-06-09T14:29:41.950Z,99.90
2019-06-09T14:32:19.106Z,99.90
2019-06-09T14:34:36.290Z,99.90
2019-06-09T14:37:03.633Z,99.90
2019-06-09T14:39:30.824Z,99.90
2019-06-09T14:42:11.999Z,99.90
2019-06-09T14:44:26.493Z,99.90
2019-06-09T14:46:53.928Z,99.90
2019-06-09T14:49:22.005Z,99.90
2019-06-09T14:51:51.705Z,99.90
2019-06-09T14:54:17.882Z,99.90
2019-06-09T14:56:44.658Z,99.90
2019-06-09T14:59:14.757Z,99.90
2019-06-09T15:01:41.323Z,99.90
2019-06-09T15:04:07.104Z,99.90
2019-06-09T15:06:35.218Z,99.90
2019-06-09T15:09:03.267Z,99.90
2019-06-09T15:11:30.976Z,99.90
2019-06-09T15:14:01.517Z,99.90
2019-06-09T15:16:27.564Z,99.90
2019-06-09T15:18:55.040Z,99.90
2019-06-09T15:21:23.349Z,99.90
2019-06-09T15:23:49.867Z,99.90
2019-06-09T15:26:17.200Z,99.90
2019-06-09T15:28:45.315Z,99.90
2019-06-09T15:31:14.338Z,99.90
2019-06-09T15:33:41.767Z,99.90
2019-06-09T15:36:11.167Z,99.90
2019-06-09T15:38:36.694Z,99.90
2019-06-09T15:41:04.733Z,99.90
2019-06-09T15:43:31.871Z,99.90
2019-06-09T15:46:01.434Z,99.90
2019-06-09T15:48:26.620Z,99.90
2019-06-09T15:50:57.288Z,99.90
2019-06-09T15:53:24.275Z,99.90
2019-06-09T15:55:50.921Z,99.90
2019-06-09T15:58:22.528Z,99.90
2019-06-09T16:00:47.494Z,99.90
2019-06-09T16:03:15.604Z,99.90
2019-06-09T16:05:42.211Z,99.90
2019-06-09T16:08:11.702Z,99.90
2019-06-09T16:10:38.198Z,99.90
2019-06-09T16:13:13.150Z,99.90
2019-06-09T16:15:33.539Z,99.90
2019-06-09T16:18:01.482Z,99.90
2019-06-09T16:20:31.645Z,99.90
2019-06-09T16:22:56.878Z,99.90
2019-06-09T16:25:25.645Z,99.90
2019-06-09T16:27:55.940Z,99.90
2019-06-09T16:30:22.475Z,99.90
2019-06-09T16:32:50.966Z,99.90
2019-06-09T16:35:16.754Z,99.90
2019-06-09T16:37:45.365Z,99.90
2019-06-09T16:40:11.874Z,99.90
2019-06-09T16:42:41.329Z,99.90
2019-06-09T16:45:07.382Z,99.90
2019-06-09T16:47:34.605Z,99.90
2019-06-09T16:50:02.122Z,99.90
2019-06-09T16:52:33.197Z,99.90
2019-06-09T16:54:58.065Z,99.90
2019-06-09T16:57:25.680Z,99.90
2019-06-09T16:59:51.839Z,99.90
2019-06-09T17:02:22.595Z,99.90
2019-06-09T17:04:47.799Z,99.90
2019-06-09T17:07:22.567Z,99.90
2019-06-09T17:09:50.780Z,99.90
2019-06-09T17:12:16.628Z,99.90
2019-06-09T17:14:44.033Z,99.90
2019-06-09T17:17:11.449Z,99.90
2019-06-09T17:19:41.413Z,99.90
2019-06-09T17:22:05.955Z,99.90
2019-06-09T17:24:36.813Z,99.90
2019-06-09T17:27:01.875Z,99.90
2019-06-09T17:29:31.144Z,99.90
2019-06-09T17:31:56.087Z,99.90
2019-06-09T17:34:23.979Z,99.90
2019-06-09T17:36:51.367Z,99.90
2019-06-09T17:39:18.772Z,99.90
2019-06-09T17:41:47.432Z,99.90
2019-06-09T17:44:15.423Z,99.90
2019-06-09T17:46:42.672Z,99.90
2019-06-09T17:49:10.643Z,99.90
2019-06-09T17:51:40.893Z,99.90
2019-06-09T17:54:06.635Z,99.90
2019-06-09T17:56:35.234Z,99.90
2019-06-09T17:59:02.423Z,99.90
2019-06-09T18:01:32.508Z,99.90
2019-06-09T18:03:57.130Z,99.90
2019-06-09T18:06:25.771Z,99.90
2019-06-09T18:08:51.678Z,99.90
2019-06-09T18:11:21.416Z,99.90
2019-06-09T18:13:47.638Z,99.90
2019-06-09T18:16:14.763Z,99.90
2019-06-09T18:18:42.279Z,99.90
2019-06-09T18:21:10.816Z,99.90
2019-06-09T18:23:38.212Z,99.90
2019-06-09T18:26:04.256Z,99.90
2019-06-09T18:28:34.835Z,99.90
2019-06-09T18:31:01.330Z,99.90
2019-06-09T18:33:27.606Z,99.90
2019-06-09T18:35:53.374Z,99.90
2019-06-09T18:38:21.282Z,99.90
2019-06-09T18:40:51.407Z,99.90
2019-06-09T18:43:21.707Z,99.90
2019-06-09T18:45:46.610Z,99.90
2019-06-09T18:48:13.823Z,99.90
2019-06-09T18:50:43.279Z,99.90
2019-06-09T18:53:10.957Z,99.90
2019-06-09T18:55:39.337Z,99.90
2019-06-09T18:58:05.769Z,99.90
2019-06-09T19:00:33.187Z,99.90
2019-06-09T19:03:01.624Z,99.90
2019-06-09T19:05:30.597Z,99.90
2019-06-09T19:07:56.752Z,99.90
2019-06-09T19:10:23.957Z,99.90
2019-06-09T19:12:51.786Z,99.90
2019-06-09T19:15:18.201Z,99.90
2019-06-09T19:17:46.770Z,99.90
2019-06-09T19:20:13.650Z,99.90
2019-06-09T19:22:42.400Z,99.90
2019-06-09T19:25:10.830Z,99.90
2019-06-09T19:27:38.047Z,99.90
2019-06-09T19:30:09.337Z,99.90
2019-06-09T19:32:35.072Z,99.90
2019-06-09T19:35:00.737Z,99.90
2019-06-09T19:37:30.162Z,99.90
2019-06-09T19:39:55.150Z,99.90
2019-06-09T19:42:22.460Z,99.90
2019-06-09T19:44:50.715Z,99.90
2019-06-09T19:47:18.399Z,99.90
2019-06-09T19:49:46.290Z,99.90
2019-06-09T19:52:13.718Z,99.90
2019-06-09T19:54:42.566Z,99.90
2019-06-09T19:57:10.594Z,99.90
2019-06-09T19:59:36.822Z,99.90
2019-06-09T20:02:03.212Z,99.90
2019-06-09T20:04:31.098Z,99.90
2019-06-09T20:07:01.444Z,99.90
2019-06-09T20:09:31.275Z,99.90
2019-06-09T20:12:00.749Z,99.90
2019-06-09T20:14:28.444Z,99.90
2019-06-09T20:16:56.569Z,99.90
2019-06-09T20:19:24.598Z,99.90
2019-06-09T20:21:52.708Z,99.90
2019-06-09T20:24:21.333Z,99.90
2019-06-09T20:26:54.926Z,99.90
2019-06-09T20:29:19.026Z,99.90
2019-06-09T20:31:48.572Z,99.90
2019-06-09T20:34:13.619Z,99.90
2019-06-09T20:36:44.965Z,99.90
2019-06-09T20:39:11.366Z,99.90
2019-06-09T20:41:37.802Z,99.90
2019-06-09T20:44:04.654Z,99.90
2019-06-09T20:46:31.598Z,99.90
2019-06-09T20:49:01.098Z,99.90
2019-06-09T20:51:25.461Z,99.90
2019-06-09T20:53:54.237Z,99.90
2019-06-09T20:56:21.195Z,99.90
2019-06-09T20:58:48.596Z,99.90
2019-06-09T21:01:15.127Z,99.90
2019-06-09T21:03:44.973Z,99.90
2019-06-09T21:06:10.992Z,99.90
2019-06-09T21:08:38.133Z,99.90
2019-06-09T21:11:05.856Z,99.90
2019-06-09T21:13:33.920Z,99.90
2019-06-09T21:16:18.719Z,99.90
2019-06-09T21:18:31.501Z,99.90
2019-06-09T21:21:00.933Z,99.90
2019-06-09T21:23:27.543Z,99.90
2019-06-09T21:25:56.034Z,99.90
2019-06-09T21:28:23.078Z,99.90
2019-06-09T21:30:56.498Z,99.90
2019-06-09T21:33:17.670Z,99.90
2019-06-09T21:35:46.564Z,99.90
2019-06-09T21:38:13.320Z,99.90
2019-06-09T21:40:41.760Z,99.90
2019-06-09T21:43:10.838Z,99.90
2019-06-09T21:45:35.448Z,99.90
2019-06-09T21:48:02.639Z,99.90
2019-06-09T21:50:34.230Z,99.90
2019-06-09T21:52:57.594Z,99.90
2019-06-09T21:55:24.359Z,99.90
2019-06-09T21:57:53.075Z,99.90
2019-06-09T22:00:21.001Z,99.90
2019-06-09T22:02:47.367Z,99.90
2019-06-09T22:05:15.533Z,99.90
2019-06-09T22:07:42.330Z,99.90
2019-06-09T22:10:11.229Z,99.90
2019-06-09T22:12:37.528Z,99.90
2019-06-09T22:15:04.483Z,99.90
2019-06-09T22:17:32.498Z,99.90
2019-06-09T22:19:59.973Z,99.90
2019-06-09T22:22:30.502Z,99.90
2019-06-09T22:24:55.769Z,99.90
2019-06-09T22:27:22.493Z,99.90
2019-06-09T22:29:52.860Z,99.90
2019-06-09T22:32:16.955Z,99.90
2019-06-09T22:34:44.954Z,99.90
2019-06-09T22:37:12.055Z,99.90
2019-06-09T22:39:41.693Z,99.90
2019-06-09T22:42:06.681Z,99.90
2019-06-09T22:44:34.605Z,99.90
2019-06-09T22:47:19.236Z,99.90
2019-06-09T22:49:31.527Z,99.90
2019-06-09T22:51:58.363Z,99.90
2019-06-09T22:54:25.940Z,99.90
2019-06-09T22:56:54.792Z,99.90
2019-06-09T22:59:21.615Z,99.90
2019-06-09T23:01:53.362Z,99.90
2019-06-09T23:04:21.102Z,99.90
2019-06-09T23:06:46.826Z,99.90
2019-06-09T23:09:14.810Z,99.90
2019-06-09T23:11:42.568Z,99.90
2019-06-09T23:14:10.862Z,99.90
2019-06-09T23:16:38.115Z,99.90
2019-06-09T23:19:05.155Z,99.90
2019-06-09T23:21:32.768Z,99.90
2019-06-09T23:24:02.669Z,99.90
2019-06-09T23:26:29.077Z,99.90
2019-06-09T23:28:56.032Z,99.90
2019-06-09T23:31:24.526Z,99.90
2019-06-09T23:33:52.929Z,99.90
2019-06-09T23:36:21.382Z,99.90
2019-06-09T23:38:47.482Z,99.90
2019-06-09T23:41:14.535Z,99.90
2019-06-09T23:43:41.388Z,99.90
2019-06-09T23:46:11.225Z,99.90
2019-06-09T23:48:36.746Z,99.90
2019-06-09T23:51:07.708Z,99.90
2019-06-09T23:53:32.158Z,99.90
2019-06-09T23:56:01.837Z,99.90
2019-06-09T23:58:30.883Z,99.90
